sensor_id;sensor_type;location;lat;lon;timestamp;P1;durP1;ratioP1;P2;durP2;ratioP2
25667;SDS011;18003;-33.830;151.202;2023-04-12T00:00:01;4.87;;;2.47;;
25667;SDS011;18003;-33.830;151.202;2023-04-12T00:02:32;6.25;;;2.42;;
25667;SDS011;18003;-33.830;151.202;2023-04-12T00:05:03;6.72;;;2.50;;
25667;SDS011;18003;-33.830;151.202;2023-04-12T00:07:34;5.20;;;2.52;;
25667;SDS011;18003;-33.830;151.202;2023-04-12T00:10:08;5.67;;;2.60;;
25667;SDS011;18003;-33.830;151.202;2023-04-12T00:12:38;6.75;;;2.85;;
25667;SDS011;18003;-33.830;151.202;2023-04-12T00:15:09;4.65;;;2.52;;
25667;SDS011;18003;-33.830;151.202;2023-04-12T00:17:39;5.40;;;2.37;;
25667;SDS011;18003;-33.830;151.202;2023-04-12T00:20:09;6.87;;;2.65;;
25667;SDS011;18003;-33.830;151.202;2023-04-12T00:22:39;3.92;;;2.58;;
25667;SDS011;18003;-33.830;151.202;2023-04-12T00:25:10;5.00;;;2.30;;
25667;SDS011;18003;-33.830;151.202;2023-04-12T00:27:40;4.62;;;2.40;;
25667;SDS011;18003;-33.830;151.202;2023-04-12T00:30:10;2.70;;;2.30;;
25667;SDS011;18003;-33.830;151.202;2023-04-12T00:32:40;4.70;;;2.42;;
25667;SDS011;18003;-33.830;151.202;2023-04-12T00:35:10;6.20;;;2.60;;
25667;SDS011;18003;-33.830;151.202;2023-04-12T00:37:40;4.75;;;2.30;;
25667;SDS011;18003;-33.830;151.202;2023-04-12T00:40:11;5.87;;;2.15;;
25667;SDS011;18003;-33.830;151.202;2023-04-12T00:42:41;5.62;;;2.55;;
25667;SDS011;18003;-33.830;151.202;2023-04-12T00:45:11;5.42;;;2.30;;
25667;SDS011;18003;-33.830;151.202;2023-04-12T00:47:41;4.47;;;2.15;;
25667;SDS011;18003;-33.830;151.202;2023-04-12T00:50:11;5.83;;;2.75;;
25667;SDS011;18003;-33.830;151.202;2023-04-12T00:52:43;7.03;;;2.58;;
25667;SDS011;18003;-33.830;151.202;2023-04-12T00:55:13;5.90;;;2.33;;
25667;SDS011;18003;-33.830;151.202;2023-04-12T00:57:43;3.98;;;2.65;;
25667;SDS011;18003;-33.830;151.202;2023-04-12T01:00:13;4.78;;;2.60;;
25667;SDS011;18003;-33.830;151.202;2023-04-12T01:02:49;4.67;;;2.50;;
25667;SDS011;18003;-33.830;151.202;2023-04-12T01:05:16;4.45;;;2.27;;
25667;SDS011;18003;-33.830;151.202;2023-04-12T01:07:54;5.30;;;2.55;;
25667;SDS011;18003;-33.830;151.202;2023-04-12T01:10:39;4.50;;;2.35;;
25667;SDS011;18003;-33.830;151.202;2023-04-12T01:13:28;6.58;;;2.67;;
25667;SDS011;18003;-33.830;151.202;2023-04-12T01:16:28;4.35;;;2.80;;
25667;SDS011;18003;-33.830;151.202;2023-04-12T01:19:01;4.45;;;2.70;;
25667;SDS011;18003;-33.830;151.202;2023-04-12T01:26:48;4.80;;;2.60;;
25667;SDS011;18003;-33.830;151.202;2023-04-12T01:29:20;4.35;;;2.10;;
25667;SDS011;18003;-33.830;151.202;2023-04-12T01:31:53;3.33;;;2.35;;
25667;SDS011;18003;-33.830;151.202;2023-04-12T01:34:28;3.85;;;2.40;;
25667;SDS011;18003;-33.830;151.202;2023-04-12T01:37:00;4.28;;;2.20;;
25667;SDS011;18003;-33.830;151.202;2023-04-12T01:39:30;4.33;;;2.00;;
25667;SDS011;18003;-33.830;151.202;2023-04-12T01:42:01;3.70;;;2.15;;
25667;SDS011;18003;-33.830;151.202;2023-04-12T01:44:31;3.22;;;2.02;;
25667;SDS011;18003;-33.830;151.202;2023-04-12T01:47:01;4.28;;;2.33;;
25667;SDS011;18003;-33.830;151.202;2023-04-12T01:49:33;2.65;;;2.20;;
25667;SDS011;18003;-33.830;151.202;2023-04-12T01:52:07;4.25;;;2.47;;
25667;SDS011;18003;-33.830;151.202;2023-04-12T01:54:36;5.70;;;2.50;;
25667;SDS011;18003;-33.830;151.202;2023-04-12T01:57:07;5.10;;;2.52;;
25667;SDS011;18003;-33.830;151.202;2023-04-12T01:59:38;4.43;;;2.00;;
25667;SDS011;18003;-33.830;151.202;2023-04-12T02:04:38;2.27;;;1.87;;
25667;SDS011;18003;-33.830;151.202;2023-04-12T02:07:10;3.67;;;2.40;;
25667;SDS011;18003;-33.830;151.202;2023-04-12T02:09:41;3.37;;;2.70;;
25667;SDS011;18003;-33.830;151.202;2023-04-12T02:12:10;3.27;;;2.30;;
25667;SDS011;18003;-33.830;151.202;2023-04-12T02:14:40;3.60;;;2.33;;
25667;SDS011;18003;-33.830;151.202;2023-04-12T02:17:11;5.25;;;2.52;;
25667;SDS011;18003;-33.830;151.202;2023-04-12T02:19:40;3.12;;;2.35;;
25667;SDS011;18003;-33.830;151.202;2023-04-12T02:22:10;3.60;;;2.58;;
25667;SDS011;18003;-33.830;151.202;2023-04-12T02:24:40;3.83;;;2.20;;
25667;SDS011;18003;-33.830;151.202;2023-04-12T02:27:11;3.20;;;2.30;;
25667;SDS011;18003;-33.830;151.202;2023-04-12T02:29:42;3.52;;;2.40;;
25667;SDS011;18003;-33.830;151.202;2023-04-12T02:32:12;3.25;;;2.22;;
25667;SDS011;18003;-33.830;151.202;2023-04-12T02:34:42;3.37;;;2.17;;
25667;SDS011;18003;-33.830;151.202;2023-04-12T02:37:13;3.25;;;2.25;;
25667;SDS011;18003;-33.830;151.202;2023-04-12T02:39:43;5.83;;;3.00;;
25667;SDS011;18003;-33.830;151.202;2023-04-12T02:42:13;4.55;;;2.22;;
25667;SDS011;18003;-33.830;151.202;2023-04-12T02:44:43;3.10;;;2.42;;
25667;SDS011;18003;-33.830;151.202;2023-04-12T02:47:13;3.87;;;2.58;;
25667;SDS011;18003;-33.830;151.202;2023-04-12T02:49:44;5.17;;;2.40;;
25667;SDS011;18003;-33.830;151.202;2023-04-12T02:52:14;4.53;;;2.35;;
25667;SDS011;18003;-33.830;151.202;2023-04-12T02:54:44;3.65;;;2.40;;
25667;SDS011;18003;-33.830;151.202;2023-04-12T02:57:15;3.92;;;2.60;;
25667;SDS011;18003;-33.830;151.202;2023-04-12T02:59:46;3.77;;;2.85;;
25667;SDS011;18003;-33.830;151.202;2023-04-12T03:02:18;3.58;;;2.62;;
25667;SDS011;18003;-33.830;151.202;2023-04-12T03:04:49;5.95;;;2.90;;
25667;SDS011;18003;-33.830;151.202;2023-04-12T03:07:20;3.77;;;2.40;;
25667;SDS011;18003;-33.830;151.202;2023-04-12T03:09:50;7.17;;;3.00;;
25667;SDS011;18003;-33.830;151.202;2023-04-12T03:12:21;6.95;;;2.70;;
25667;SDS011;18003;-33.830;151.202;2023-04-12T03:14:51;5.17;;;2.80;;
25667;SDS011;18003;-33.830;151.202;2023-04-12T03:17:21;3.72;;;2.72;;
25667;SDS011;18003;-33.830;151.202;2023-04-12T03:19:51;4.87;;;2.70;;
25667;SDS011;18003;-33.830;151.202;2023-04-12T03:22:21;5.65;;;2.40;;
25667;SDS011;18003;-33.830;151.202;2023-04-12T03:24:51;3.95;;;2.60;;
25667;SDS011;18003;-33.830;151.202;2023-04-12T03:27:21;5.33;;;2.60;;
25667;SDS011;18003;-33.830;151.202;2023-04-12T03:29:51;5.28;;;2.42;;
25667;SDS011;18003;-33.830;151.202;2023-04-12T03:32:22;5.10;;;2.33;;
25667;SDS011;18003;-33.830;151.202;2023-04-12T03:34:52;4.08;;;2.55;;
25667;SDS011;18003;-33.830;151.202;2023-04-12T03:37:23;43.90;;;4.37;;
25667;SDS011;18003;-33.830;151.202;2023-04-12T03:39:53;12.28;;;3.00;;
25667;SDS011;18003;-33.830;151.202;2023-04-12T03:42:23;8.88;;;2.98;;
25667;SDS011;18003;-33.830;151.202;2023-04-12T03:44:53;7.87;;;2.60;;
25667;SDS011;18003;-33.830;151.202;2023-04-12T03:47:23;6.15;;;2.75;;
25667;SDS011;18003;-33.830;151.202;2023-04-12T03:50:03;5.65;;;3.00;;
25667;SDS011;18003;-33.830;151.202;2023-04-12T03:52:34;3.72;;;3.00;;
25667;SDS011;18003;-33.830;151.202;2023-04-12T03:55:04;4.08;;;3.00;;
25667;SDS011;18003;-33.830;151.202;2023-04-12T03:57:34;5.22;;;2.77;;
25667;SDS011;18003;-33.830;151.202;2023-04-12T04:00:05;6.58;;;2.98;;
25667;SDS011;18003;-33.830;151.202;2023-04-12T04:02:37;3.80;;;2.80;;
25667;SDS011;18003;-33.830;151.202;2023-04-12T04:05:07;4.62;;;3.20;;
25667;SDS011;18003;-33.830;151.202;2023-04-12T04:07:38;3.98;;;3.15;;
25667;SDS011;18003;-33.830;151.202;2023-04-12T04:10:09;4.75;;;2.60;;
25667;SDS011;18003;-33.830;151.202;2023-04-12T04:12:39;4.37;;;3.00;;
25667;SDS011;18003;-33.830;151.202;2023-04-12T04:15:09;3.27;;;2.75;;
25667;SDS011;18003;-33.830;151.202;2023-04-12T04:17:39;2.50;;;2.22;;
25667;SDS011;18003;-33.830;151.202;2023-04-12T04:20:10;2.87;;;2.37;;
25667;SDS011;18003;-33.830;151.202;2023-04-12T04:22:40;3.45;;;2.40;;
25667;SDS011;18003;-33.830;151.202;2023-04-12T04:25:10;3.25;;;2.42;;
25667;SDS011;18003;-33.830;151.202;2023-04-12T04:27:41;2.92;;;2.27;;
25667;SDS011;18003;-33.830;151.202;2023-04-12T04:30:15;2.80;;;2.37;;
25667;SDS011;18003;-33.830;151.202;2023-04-12T04:32:45;3.27;;;2.30;;
25667;SDS011;18003;-33.830;151.202;2023-04-12T04:35:15;4.75;;;2.62;;
25667;SDS011;18003;-33.830;151.202;2023-04-12T04:37:46;2.80;;;2.60;;
25667;SDS011;18003;-33.830;151.202;2023-04-12T04:40:17;2.85;;;2.60;;
25667;SDS011;18003;-33.830;151.202;2023-04-12T04:42:47;3.45;;;2.20;;
25667;SDS011;18003;-33.830;151.202;2023-04-12T04:45:18;6.35;;;2.70;;
25667;SDS011;18003;-33.830;151.202;2023-04-12T04:47:55;4.10;;;2.42;;
25667;SDS011;18003;-33.830;151.202;2023-04-12T04:50:25;3.37;;;2.58;;
25667;SDS011;18003;-33.830;151.202;2023-04-12T04:52:56;2.77;;;2.58;;
25667;SDS011;18003;-33.830;151.202;2023-04-12T04:55:26;3.33;;;2.37;;
25667;SDS011;18003;-33.830;151.202;2023-04-12T04:57:56;5.22;;;2.20;;
25667;SDS011;18003;-33.830;151.202;2023-04-12T05:00:26;3.80;;;2.40;;
25667;SDS011;18003;-33.830;151.202;2023-04-12T05:02:57;4.15;;;2.50;;
25667;SDS011;18003;-33.830;151.202;2023-04-12T05:05:27;4.22;;;2.30;;
25667;SDS011;18003;-33.830;151.202;2023-04-12T05:07:57;2.33;;;2.12;;
25667;SDS011;18003;-33.830;151.202;2023-04-12T05:10:27;3.50;;;2.20;;
25667;SDS011;18003;-33.830;151.202;2023-04-12T05:12:57;3.22;;;2.47;;
25667;SDS011;18003;-33.830;151.202;2023-04-12T05:15:28;4.08;;;2.55;;
25667;SDS011;18003;-33.830;151.202;2023-04-12T05:17:58;4.37;;;2.60;;
25667;SDS011;18003;-33.830;151.202;2023-04-12T05:20:29;4.58;;;2.87;;
25667;SDS011;18003;-33.830;151.202;2023-04-12T05:22:59;4.03;;;2.80;;
25667;SDS011;18003;-33.830;151.202;2023-04-12T05:25:29;3.65;;;2.50;;
25667;SDS011;18003;-33.830;151.202;2023-04-12T05:27:59;2.80;;;2.60;;
25667;SDS011;18003;-33.830;151.202;2023-04-12T05:30:29;4.75;;;2.65;;
25667;SDS011;18003;-33.830;151.202;2023-04-12T05:32:59;2.70;;;2.30;;
25667;SDS011;18003;-33.830;151.202;2023-04-12T05:35:30;3.02;;;2.40;;
25667;SDS011;18003;-33.830;151.202;2023-04-12T05:38:00;3.20;;;2.50;;
25667;SDS011;18003;-33.830;151.202;2023-04-12T05:40:30;2.50;;;2.30;;
25667;SDS011;18003;-33.830;151.202;2023-04-12T05:43:01;2.70;;;2.50;;
25667;SDS011;18003;-33.830;151.202;2023-04-12T05:45:31;2.92;;;2.58;;
25667;SDS011;18003;-33.830;151.202;2023-04-12T05:48:01;3.27;;;2.33;;
25667;SDS011;18003;-33.830;151.202;2023-04-12T05:50:31;2.60;;;2.20;;
25667;SDS011;18003;-33.830;151.202;2023-04-12T05:53:01;3.17;;;2.30;;
25667;SDS011;18003;-33.830;151.202;2023-04-12T05:55:31;4.20;;;2.40;;
25667;SDS011;18003;-33.830;151.202;2023-04-12T05:58:02;2.75;;;2.30;;
25667;SDS011;18003;-33.830;151.202;2023-04-12T06:00:32;2.65;;;2.30;;
25667;SDS011;18003;-33.830;151.202;2023-04-12T06:03:02;2.35;;;2.00;;
25667;SDS011;18003;-33.830;151.202;2023-04-12T06:05:33;2.40;;;2.20;;
25667;SDS011;18003;-33.830;151.202;2023-04-12T06:08:04;3.00;;;2.40;;
25667;SDS011;18003;-33.830;151.202;2023-04-12T06:10:34;5.20;;;2.20;;
25667;SDS011;18003;-33.830;151.202;2023-04-12T06:13:04;2.37;;;2.17;;
25667;SDS011;18003;-33.830;151.202;2023-04-12T06:15:34;3.55;;;1.98;;
25667;SDS011;18003;-33.830;151.202;2023-04-12T06:18:05;3.45;;;2.25;;
25667;SDS011;18003;-33.830;151.202;2023-04-12T06:20:37;3.08;;;2.02;;
25667;SDS011;18003;-33.830;151.202;2023-04-12T06:23:08;2.70;;;2.10;;
25667;SDS011;18003;-33.830;151.202;2023-04-12T06:25:39;3.52;;;2.37;;
25667;SDS011;18003;-33.830;151.202;2023-04-12T06:28:09;4.10;;;2.40;;
25667;SDS011;18003;-33.830;151.202;2023-04-12T06:30:39;3.33;;;2.40;;
25667;SDS011;18003;-33.830;151.202;2023-04-12T06:33:09;2.98;;;2.45;;
25667;SDS011;18003;-33.830;151.202;2023-04-12T06:35:39;4.10;;;2.50;;
25667;SDS011;18003;-33.830;151.202;2023-04-12T06:38:09;6.65;;;2.27;;
25667;SDS011;18003;-33.830;151.202;2023-04-12T06:40:39;7.90;;;2.30;;
25667;SDS011;18003;-33.830;151.202;2023-04-12T06:43:09;3.77;;;2.50;;
25667;SDS011;18003;-33.830;151.202;2023-04-12T06:45:39;3.77;;;2.10;;
25667;SDS011;18003;-33.830;151.202;2023-04-12T06:48:09;2.67;;;2.15;;
25667;SDS011;18003;-33.830;151.202;2023-04-12T06:50:39;2.75;;;2.00;;
25667;SDS011;18003;-33.830;151.202;2023-04-12T06:53:10;213.55;;;19.48;;
25667;SDS011;18003;-33.830;151.202;2023-04-12T06:55:40;172.62;;;19.90;;
25667;SDS011;18003;-33.830;151.202;2023-04-12T06:58:09;161.92;;;17.90;;
25667;SDS011;18003;-33.830;151.202;2023-04-12T07:00:40;89.72;;;12.95;;
25667;SDS011;18003;-33.830;151.202;2023-04-12T07:03:10;69.42;;;10.95;;
25667;SDS011;18003;-33.830;151.202;2023-04-12T07:05:40;66.50;;;9.33;;
25667;SDS011;18003;-33.830;151.202;2023-04-12T07:08:11;60.70;;;9.25;;
25667;SDS011;18003;-33.830;151.202;2023-04-12T07:10:41;39.90;;;6.42;;
25667;SDS011;18003;-33.830;151.202;2023-04-12T07:13:11;29.25;;;5.45;;
25667;SDS011;18003;-33.830;151.202;2023-04-12T07:15:41;28.25;;;5.05;;
25667;SDS011;18003;-33.830;151.202;2023-04-12T07:18:12;17.95;;;4.25;;
25667;SDS011;18003;-33.830;151.202;2023-04-12T07:20:45;20.43;;;3.95;;
25667;SDS011;18003;-33.830;151.202;2023-04-12T07:23:17;18.10;;;4.28;;
25667;SDS011;18003;-33.830;151.202;2023-04-12T07:25:47;12.47;;;3.25;;
25667;SDS011;18003;-33.830;151.202;2023-04-12T07:28:17;11.25;;;3.60;;
25667;SDS011;18003;-33.830;151.202;2023-04-12T07:30:47;8.10;;;3.10;;
25667;SDS011;18003;-33.830;151.202;2023-04-12T07:33:17;6.80;;;2.80;;
25667;SDS011;18003;-33.830;151.202;2023-04-12T07:35:47;7.30;;;2.52;;
25667;SDS011;18003;-33.830;151.202;2023-04-12T07:38:17;9.00;;;2.72;;
25667;SDS011;18003;-33.830;151.202;2023-04-12T07:40:48;5.17;;;2.65;;
25667;SDS011;18003;-33.830;151.202;2023-04-12T07:43:18;7.23;;;2.80;;
25667;SDS011;18003;-33.830;151.202;2023-04-12T07:45:48;5.17;;;2.10;;
25667;SDS011;18003;-33.830;151.202;2023-04-12T07:48:19;4.53;;;2.12;;
25667;SDS011;18003;-33.830;151.202;2023-04-12T07:50:49;4.55;;;2.20;;
25667;SDS011;18003;-33.830;151.202;2023-04-12T07:55:53;2.83;;;2.00;;
25667;SDS011;18003;-33.830;151.202;2023-04-12T07:58:24;4.50;;;1.72;;
25667;SDS011;18003;-33.830;151.202;2023-04-12T08:00:54;3.05;;;2.40;;
25667;SDS011;18003;-33.830;151.202;2023-04-12T08:03:24;2.98;;;2.02;;
25667;SDS011;18003;-33.830;151.202;2023-04-12T08:05:54;1.98;;;1.80;;
25667;SDS011;18003;-33.830;151.202;2023-04-12T08:08:24;2.72;;;2.33;;
25667;SDS011;18003;-33.830;151.202;2023-04-12T08:10:55;3.60;;;2.35;;
25667;SDS011;18003;-33.830;151.202;2023-04-12T08:13:25;2.15;;;1.98;;
25667;SDS011;18003;-33.830;151.202;2023-04-12T08:15:55;3.15;;;2.40;;
25667;SDS011;18003;-33.830;151.202;2023-04-12T08:18:25;2.72;;;2.30;;
25667;SDS011;18003;-33.830;151.202;2023-04-12T08:20:56;4.12;;;2.33;;
25667;SDS011;18003;-33.830;151.202;2023-04-12T08:23:26;3.00;;;2.50;;
25667;SDS011;18003;-33.830;151.202;2023-04-12T08:25:57;3.17;;;2.65;;
25667;SDS011;18003;-33.830;151.202;2023-04-12T08:28:28;2.50;;;2.30;;
25667;SDS011;18003;-33.830;151.202;2023-04-12T08:30:59;4.65;;;2.42;;
25667;SDS011;18003;-33.830;151.202;2023-04-12T08:33:29;2.45;;;2.22;;
25667;SDS011;18003;-33.830;151.202;2023-04-12T08:35:59;3.25;;;2.33;;
25667;SDS011;18003;-33.830;151.202;2023-04-12T08:38:29;2.90;;;2.60;;
25667;SDS011;18003;-33.830;151.202;2023-04-12T08:40:59;3.12;;;2.65;;
25667;SDS011;18003;-33.830;151.202;2023-04-12T08:43:30;2.60;;;2.40;;
25667;SDS011;18003;-33.830;151.202;2023-04-12T08:46:01;3.58;;;2.37;;
25667;SDS011;18003;-33.830;151.202;2023-04-12T08:48:33;3.12;;;2.83;;
25667;SDS011;18003;-33.830;151.202;2023-04-12T08:51:04;3.10;;;2.80;;
25667;SDS011;18003;-33.830;151.202;2023-04-12T08:53:35;3.17;;;2.55;;
25667;SDS011;18003;-33.830;151.202;2023-04-12T08:56:11;6.00;;;2.95;;
25667;SDS011;18003;-33.830;151.202;2023-04-12T08:58:48;3.67;;;3.08;;
25667;SDS011;18003;-33.830;151.202;2023-04-12T09:01:15;4.87;;;3.83;;
25667;SDS011;18003;-33.830;151.202;2023-04-12T09:03:47;5.45;;;3.45;;
25667;SDS011;18003;-33.830;151.202;2023-04-12T09:06:17;4.83;;;4.00;;
25667;SDS011;18003;-33.830;151.202;2023-04-12T09:08:50;4.58;;;4.00;;
25667;SDS011;18003;-33.830;151.202;2023-04-12T09:11:24;7.42;;;4.47;;
25667;SDS011;18003;-33.830;151.202;2023-04-12T09:13:55;5.47;;;4.03;;
25667;SDS011;18003;-33.830;151.202;2023-04-12T09:16:38;6.10;;;4.58;;
25667;SDS011;18003;-33.830;151.202;2023-04-12T09:19:08;6.37;;;3.95;;
25667;SDS011;18003;-33.830;151.202;2023-04-12T09:22:00;5.10;;;4.10;;
25667;SDS011;18003;-33.830;151.202;2023-04-12T09:24:22;4.58;;;3.90;;
25667;SDS011;18003;-33.830;151.202;2023-04-12T09:29:33;6.35;;;4.40;;
25667;SDS011;18003;-33.830;151.202;2023-04-12T09:32:04;8.43;;;4.53;;
25667;SDS011;18003;-33.830;151.202;2023-04-12T09:34:35;5.53;;;4.17;;
25667;SDS011;18003;-33.830;151.202;2023-04-12T09:37:14;6.42;;;4.58;;
25667;SDS011;18003;-33.830;151.202;2023-04-12T09:39:44;5.83;;;4.30;;
25667;SDS011;18003;-33.830;151.202;2023-04-12T09:42:14;4.60;;;4.00;;
25667;SDS011;18003;-33.830;151.202;2023-04-12T09:44:45;5.40;;;4.37;;
25667;SDS011;18003;-33.830;151.202;2023-04-12T09:47:15;6.53;;;4.70;;
25667;SDS011;18003;-33.830;151.202;2023-04-12T09:49:45;5.67;;;4.40;;
25667;SDS011;18003;-33.830;151.202;2023-04-12T09:52:16;6.15;;;4.20;;
25667;SDS011;18003;-33.830;151.202;2023-04-12T09:54:46;7.28;;;4.33;;
25667;SDS011;18003;-33.830;151.202;2023-04-12T09:57:17;5.62;;;3.98;;
25667;SDS011;18003;-33.830;151.202;2023-04-12T09:59:48;5.95;;;4.08;;
25667;SDS011;18003;-33.830;151.202;2023-04-12T10:02:22;5.33;;;3.87;;
25667;SDS011;18003;-33.830;151.202;2023-04-12T10:04:51;4.42;;;3.62;;
25667;SDS011;18003;-33.830;151.202;2023-04-12T10:07:22;6.05;;;3.90;;
25667;SDS011;18003;-33.830;151.202;2023-04-12T10:09:53;4.72;;;3.55;;
25667;SDS011;18003;-33.830;151.202;2023-04-12T10:12:25;4.72;;;3.87;;
25667;SDS011;18003;-33.830;151.202;2023-04-12T10:14:56;5.62;;;4.08;;
25667;SDS011;18003;-33.830;151.202;2023-04-12T10:17:28;6.67;;;4.20;;
25667;SDS011;18003;-33.830;151.202;2023-04-12T10:20:03;5.17;;;4.03;;
25667;SDS011;18003;-33.830;151.202;2023-04-12T10:22:34;5.08;;;4.00;;
25667;SDS011;18003;-33.830;151.202;2023-04-12T10:25:09;4.85;;;4.08;;
25667;SDS011;18003;-33.830;151.202;2023-04-12T10:27:40;6.37;;;4.00;;
25667;SDS011;18003;-33.830;151.202;2023-04-12T10:30:20;5.67;;;4.57;;
25667;SDS011;18003;-33.830;151.202;2023-04-12T10:38:29;5.25;;;4.10;;
25667;SDS011;18003;-33.830;151.202;2023-04-12T10:41:25;6.65;;;3.90;;
25667;SDS011;18003;-33.830;151.202;2023-04-12T10:44:22;6.47;;;3.90;;
25667;SDS011;18003;-33.830;151.202;2023-04-12T10:49:14;4.83;;;4.30;;
25667;SDS011;18003;-33.830;151.202;2023-04-12T10:54:38;5.08;;;4.10;;
25667;SDS011;18003;-33.830;151.202;2023-04-12T10:59:50;5.10;;;4.28;;
25667;SDS011;18003;-33.830;151.202;2023-04-12T11:02:22;4.57;;;4.07;;
25667;SDS011;18003;-33.830;151.202;2023-04-12T11:05:02;6.35;;;4.22;;
25667;SDS011;18003;-33.830;151.202;2023-04-12T11:07:38;5.75;;;3.90;;
25667;SDS011;18003;-33.830;151.202;2023-04-12T11:10:12;5.25;;;3.83;;
25667;SDS011;18003;-33.830;151.202;2023-04-12T11:12:54;6.17;;;3.80;;
25667;SDS011;18003;-33.830;151.202;2023-04-12T11:15:26;8.30;;;4.03;;
25667;SDS011;18003;-33.830;151.202;2023-04-12T11:17:58;6.92;;;3.90;;
25667;SDS011;18003;-33.830;151.202;2023-04-12T11:20:29;4.97;;;3.85;;
25667;SDS011;18003;-33.830;151.202;2023-04-12T11:23:00;5.30;;;3.77;;
25667;SDS011;18003;-33.830;151.202;2023-04-12T11:25:31;5.60;;;3.47;;
25667;SDS011;18003;-33.830;151.202;2023-04-12T11:28:02;5.93;;;3.90;;
25667;SDS011;18003;-33.830;151.202;2023-04-12T11:30:32;5.50;;;3.72;;
25667;SDS011;18003;-33.830;151.202;2023-04-12T11:33:02;4.08;;;3.67;;
25667;SDS011;18003;-33.830;151.202;2023-04-12T11:35:32;3.45;;;3.05;;
25667;SDS011;18003;-33.830;151.202;2023-04-12T11:38:03;5.47;;;3.05;;
25667;SDS011;18003;-33.830;151.202;2023-04-12T11:40:34;5.20;;;3.47;;
25667;SDS011;18003;-33.830;151.202;2023-04-12T11:43:04;3.50;;;3.20;;
25667;SDS011;18003;-33.830;151.202;2023-04-12T11:45:34;3.60;;;3.02;;
25667;SDS011;18003;-33.830;151.202;2023-04-12T11:48:06;6.28;;;3.40;;
25667;SDS011;18003;-33.830;151.202;2023-04-12T11:50:35;3.67;;;3.10;;
25667;SDS011;18003;-33.830;151.202;2023-04-12T11:53:09;4.25;;;3.35;;
25667;SDS011;18003;-33.830;151.202;2023-04-12T11:55:39;5.75;;;3.50;;
25667;SDS011;18003;-33.830;151.202;2023-04-12T11:58:10;3.75;;;3.42;;
25667;SDS011;18003;-33.830;151.202;2023-04-12T12:00:42;3.92;;;3.30;;
25667;SDS011;18003;-33.830;151.202;2023-04-12T12:03:12;3.92;;;2.80;;
25667;SDS011;18003;-33.830;151.202;2023-04-12T12:05:44;4.08;;;2.98;;
25667;SDS011;18003;-33.830;151.202;2023-04-12T12:08:17;4.67;;;3.50;;
25667;SDS011;18003;-33.830;151.202;2023-04-12T12:13:18;4.47;;;3.33;;
25667;SDS011;18003;-33.830;151.202;2023-04-12T12:15:48;3.85;;;2.87;;
25667;SDS011;18003;-33.830;151.202;2023-04-12T12:18:27;3.80;;;2.70;;
25667;SDS011;18003;-33.830;151.202;2023-04-12T12:20:55;4.90;;;3.27;;
25667;SDS011;18003;-33.830;151.202;2023-04-12T12:23:28;4.17;;;3.23;;
25667;SDS011;18003;-33.830;151.202;2023-04-12T12:25:59;4.90;;;3.40;;
25667;SDS011;18003;-33.830;151.202;2023-04-12T12:28:36;3.98;;;3.50;;
25667;SDS011;18003;-33.830;151.202;2023-04-12T12:31:06;5.53;;;3.33;;
25667;SDS011;18003;-33.830;151.202;2023-04-12T12:33:39;4.45;;;3.40;;
25667;SDS011;18003;-33.830;151.202;2023-04-12T12:36:09;4.40;;;2.92;;
25667;SDS011;18003;-33.830;151.202;2023-04-12T12:38:42;4.58;;;3.10;;
25667;SDS011;18003;-33.830;151.202;2023-04-12T12:41:17;4.35;;;3.58;;
25667;SDS011;18003;-33.830;151.202;2023-04-12T12:43:51;4.47;;;3.52;;
25667;SDS011;18003;-33.830;151.202;2023-04-12T12:46:21;4.45;;;3.27;;
25667;SDS011;18003;-33.830;151.202;2023-04-12T12:48:51;5.62;;;3.50;;
25667;SDS011;18003;-33.830;151.202;2023-04-12T12:51:21;4.80;;;3.55;;
25667;SDS011;18003;-33.830;151.202;2023-04-12T12:53:52;3.90;;;3.52;;
25667;SDS011;18003;-33.830;151.202;2023-04-12T12:56:22;5.05;;;3.30;;
25667;SDS011;18003;-33.830;151.202;2023-04-12T12:58:52;4.60;;;3.20;;
25667;SDS011;18003;-33.830;151.202;2023-04-12T13:01:22;4.50;;;3.25;;
25667;SDS011;18003;-33.830;151.202;2023-04-12T13:03:53;4.77;;;3.30;;
25667;SDS011;18003;-33.830;151.202;2023-04-12T13:06:24;3.47;;;3.17;;
25667;SDS011;18003;-33.830;151.202;2023-04-12T13:08:54;3.60;;;3.02;;
25667;SDS011;18003;-33.830;151.202;2023-04-12T13:11:24;4.78;;;3.10;;
25667;SDS011;18003;-33.830;151.202;2023-04-12T13:13:54;4.47;;;3.25;;
25667;SDS011;18003;-33.830;151.202;2023-04-12T13:16:24;3.77;;;3.20;;
25667;SDS011;18003;-33.830;151.202;2023-04-12T13:18:54;4.33;;;3.35;;
25667;SDS011;18003;-33.830;151.202;2023-04-12T13:21:30;5.45;;;3.58;;
25667;SDS011;18003;-33.830;151.202;2023-04-12T13:24:01;4.87;;;3.50;;
25667;SDS011;18003;-33.830;151.202;2023-04-12T13:26:31;5.28;;;3.08;;
25667;SDS011;18003;-33.830;151.202;2023-04-12T13:29:01;5.83;;;3.50;;
25667;SDS011;18003;-33.830;151.202;2023-04-12T13:31:32;6.83;;;3.37;;
25667;SDS011;18003;-33.830;151.202;2023-04-12T13:34:02;5.85;;;3.40;;
25667;SDS011;18003;-33.830;151.202;2023-04-12T13:36:32;3.55;;;3.20;;
25667;SDS011;18003;-33.830;151.202;2023-04-12T13:39:02;5.08;;;3.08;;
25667;SDS011;18003;-33.830;151.202;2023-04-12T13:41:32;3.98;;;3.58;;
25667;SDS011;18003;-33.830;151.202;2023-04-12T13:44:02;4.45;;;3.33;;
25667;SDS011;18003;-33.830;151.202;2023-04-12T13:46:32;5.47;;;3.20;;
25667;SDS011;18003;-33.830;151.202;2023-04-12T13:49:02;5.65;;;3.65;;
25667;SDS011;18003;-33.830;151.202;2023-04-12T13:51:32;3.70;;;3.30;;
25667;SDS011;18003;-33.830;151.202;2023-04-12T13:54:02;4.50;;;3.25;;
25667;SDS011;18003;-33.830;151.202;2023-04-12T13:56:33;5.78;;;3.50;;
25667;SDS011;18003;-33.830;151.202;2023-04-12T13:59:03;4.85;;;3.40;;
25667;SDS011;18003;-33.830;151.202;2023-04-12T14:01:33;4.70;;;3.37;;
25667;SDS011;18003;-33.830;151.202;2023-04-12T14:04:03;4.60;;;3.27;;
25667;SDS011;18003;-33.830;151.202;2023-04-12T14:06:34;5.25;;;3.10;;
25667;SDS011;18003;-33.830;151.202;2023-04-12T14:09:04;3.42;;;3.10;;
25667;SDS011;18003;-33.830;151.202;2023-04-12T14:11:46;5.65;;;2.90;;
25667;SDS011;18003;-33.830;151.202;2023-04-12T14:14:16;4.75;;;3.00;;
25667;SDS011;18003;-33.830;151.202;2023-04-12T14:16:47;4.30;;;3.22;;
25667;SDS011;18003;-33.830;151.202;2023-04-12T14:19:19;3.98;;;3.10;;
25667;SDS011;18003;-33.830;151.202;2023-04-12T14:21:49;3.27;;;2.98;;
25667;SDS011;18003;-33.830;151.202;2023-04-12T14:24:19;4.25;;;3.10;;
25667;SDS011;18003;-33.830;151.202;2023-04-12T14:26:50;4.67;;;3.12;;
25667;SDS011;18003;-33.830;151.202;2023-04-12T14:29:20;3.95;;;2.90;;
25667;SDS011;18003;-33.830;151.202;2023-04-12T14:31:50;4.50;;;2.95;;
25667;SDS011;18003;-33.830;151.202;2023-04-12T14:34:20;4.03;;;3.02;;
25667;SDS011;18003;-33.830;151.202;2023-04-12T14:36:50;3.58;;;2.80;;
25667;SDS011;18003;-33.830;151.202;2023-04-12T14:39:20;5.05;;;2.70;;
25667;SDS011;18003;-33.830;151.202;2023-04-12T14:41:50;3.45;;;2.90;;
25667;SDS011;18003;-33.830;151.202;2023-04-12T14:44:20;3.83;;;3.10;;
25667;SDS011;18003;-33.830;151.202;2023-04-12T14:46:50;4.37;;;3.22;;
25667;SDS011;18003;-33.830;151.202;2023-04-12T14:49:20;5.80;;;3.10;;
25667;SDS011;18003;-33.830;151.202;2023-04-12T14:51:50;5.80;;;3.40;;
25667;SDS011;18003;-33.830;151.202;2023-04-12T14:54:20;5.20;;;3.35;;
25667;SDS011;18003;-33.830;151.202;2023-04-12T14:56:50;3.83;;;3.15;;
25667;SDS011;18003;-33.830;151.202;2023-04-12T14:59:20;4.30;;;3.35;;